Terminal Aerodrome Forecast
Issued by NWS

Home | Current Version | Previous Version | Text Only | Print | Product List | Glossary On
Versions: 1 2 3 4 5 6 7 8 9 10 11 12
000
FTAK31 PAJN 271100
TAFAGY
TAF
PAGY 271120Z 2712/2812 20012KT P6SM VCSH OVC060
     FM272000 21015KT P6SM VCSH OVC050
     FM280400 21010KT P6SM VCSH OVC050
     FM280900 VRB03KT P6SM OVC070
      AMD LTD TO CLD VIS AND WIND=

USA.gov is the U.S. government's official web portal to all federal, state and local government web resources and services.